createdAt,value
2022-08-31T09:55:28.064Z,99581.02
2022-08-31T10:03:11.410Z,99567.65
2022-08-31T10:04:59.612Z,99569.52
2022-08-31T10:06:32.695Z,99567.50
2022-08-31T10:08:18.866Z,99563.17
2022-08-31T10:09:57.622Z,99566.88
2022-08-31T10:11:31.558Z,99567.77
2022-08-31T10:12:44.027Z,99561.73
2022-08-31T10:14:07.776Z,99563.82
2022-08-31T10:15:40.033Z,99561.83
2022-08-31T10:17:23.059Z,99564.28
2022-08-31T10:18:56.075Z,99564.23
2022-08-31T10:20:37.712Z,99565.05
2022-08-31T10:22:13.426Z,99563.82
2022-08-31T10:23:56.233Z,99565.80
2022-08-31T10:31:22.579Z,99561.90
2022-08-31T10:34:41.256Z,99548.81
2022-08-31T10:36:17.575Z,99552.23
2022-08-31T10:39:23.721Z,99547.49
2022-08-31T10:48:21.923Z,99539.57
2022-08-31T10:49:43.501Z,99531.55
2022-08-31T10:51:19.298Z,99535.45
2022-08-31T10:53:01.959Z,99535.98
2022-08-31T10:54:52.965Z,99531.20
2022-08-31T10:56:31.716Z,99525.87
2022-08-31T10:59:12.567Z,99520.04
2022-08-31T11:01:03.381Z,99518.79
2022-08-31T11:02:38.944Z,99517.87
2022-08-31T11:04:14.133Z,99513.66
2022-08-31T11:05:51.793Z,99513.33
2022-08-31T11:07:24.525Z,99511.36
2022-08-31T11:09:17.189Z,99514.59
2022-08-31T11:10:47.904Z,99511.05
2022-08-31T11:12:20.512Z,99510.31
2022-08-31T11:14:11.201Z,99511.17
2022-08-31T11:15:45.055Z,99509.02
2022-08-31T11:17:48.184Z,99508.97
2022-08-31T11:19:36.571Z,99508.23
2022-08-31T11:21:24.087Z,99504.48
2022-08-31T11:23:08.660Z,99507.08
2022-08-31T11:24:38.552Z,99502.61
2022-08-31T11:26:32.312Z,99502.27
2022-08-31T11:28:07.659Z,99502.80
2022-08-31T11:29:44.691Z,99499.27
2022-08-31T11:31:24.250Z,99497.23
2022-08-31T11:33:00.125Z,99499.64
2022-08-31T11:34:35.709Z,99498.16
2022-08-31T11:36:07.510Z,99497.89
2022-08-31T11:37:31.282Z,99493.93
2022-08-31T11:39:23.096Z,99493.84
2022-08-31T11:40:59.708Z,99491.14
2022-08-31T11:42:39.416Z,99485.45
2022-08-31T11:44:07.150Z,99482.73
2022-08-31T11:45:41.373Z,99486.40
2022-08-31T11:47:24.767Z,99481.48
2022-08-31T11:48:55.627Z,99483.67
2022-08-31T11:50:43.149Z,99481.95
2022-08-31T11:52:22.901Z,99476.44
2022-08-31T11:55:54.757Z,99475.96
2022-08-31T11:57:10.558Z,99475.36
2022-08-31T11:58:44.471Z,99477.30
2022-08-31T12:04:58.418Z,99469.11
2022-08-31T12:06:38.244Z,99465.23
2022-08-31T12:08:14.970Z,99462.37
2022-08-31T12:09:46.196Z,99462.01
2022-08-31T12:11:33.937Z,99458.07
2022-08-31T12:13:07.145Z,99457.29
2022-08-31T12:23:30.016Z,99448.95
2022-08-31T12:27:10.714Z,99449.73
2022-08-31T12:28:46.746Z,99449.20
2022-08-31T12:30:24.943Z,99447.35
2022-08-31T12:32:00.391Z,99447.27
2022-08-31T12:40:24.128Z,99444.55
2022-08-31T12:41:57.513Z,99439.21
2022-08-31T12:43:36.523Z,99440.56
2022-08-31T12:45:11.385Z,99435.23
2022-08-31T12:46:50.233Z,99435.90
2022-08-31T12:48:24.986Z,99433.32
2022-08-31T12:50:18.603Z,99430.77
2022-08-31T12:51:41.879Z,99423.51
2022-08-31T12:52:57.928Z,99426.00
2022-08-31T12:54:43.442Z,99422.18
2022-08-31T12:56:18.881Z,99421.94
2022-08-31T12:58:06.107Z,99415.30
2022-08-31T13:00:01.578Z,99414.20
2022-08-31T13:01:36.180Z,99407.05
2022-08-31T13:03:09.211Z,99405.86
2022-08-31T13:04:42.769Z,99403.02
2022-08-31T13:06:14.068Z,99400.36
2022-08-31T13:07:52.927Z,99398.83
2022-08-31T13:09:28.435Z,99397.24
2022-08-31T13:11:16.101Z,99400.09
2022-08-31T13:13:05.446Z,99400.20
2022-08-31T13:14:50.312Z,99400.68
2022-08-31T13:16:29.148Z,99399.51
2022-08-31T13:18:04.617Z,99402.71
2022-08-31T13:19:38.285Z,99396.27
2022-08-31T13:21:13.589Z,99394.14
2022-08-31T13:22:49.305Z,99392.94
2022-08-31T13:24:30.580Z,99389.84
2022-08-31T13:26:22.596Z,99388.62
2022-08-31T13:28:00.816Z,99389.84
2022-08-31T13:29:34.624Z,99383.00
2022-08-31T13:31:13.588Z,99384.52
2022-08-31T13:32:49.366Z,99389.22
2022-08-31T13:34:22.648Z,99392.41
2022-08-31T13:35:57.983Z,99390.23
2022-08-31T13:37:34.451Z,99394.97
2022-08-31T13:51:12.723Z,99397.25
2022-08-31T13:52:41.200Z,99403.14
2022-08-31T13:54:15.407Z,99390.21
2022-08-31T13:56:07.712Z,99395.88
2022-08-31T13:57:56.768Z,99394.95
2022-08-31T13:59:30.654Z,99392.86
2022-08-31T14:01:06.718Z,99397.41
2022-08-31T14:02:41.255Z,99399.33
2022-08-31T14:04:34.338Z,99394.29
2022-08-31T14:06:11.956Z,99394.04
2022-08-31T14:16:13.558Z,99398.11
2022-08-31T14:18:24.027Z,99398.97
2022-08-31T14:19:42.046Z,99400.13
2022-08-31T14:21:43.973Z,99402.17
2022-08-31T14:23:18.317Z,99404.88
2022-08-31T14:24:55.305Z,99404.45
2022-08-31T14:26:30.589Z,99404.84
2022-08-31T14:28:04.563Z,99407.54
2022-08-31T14:42:19.683Z,99410.86
2022-08-31T14:42:53.059Z,99411.64
2022-08-31T14:43:26.266Z,99417.17
2022-08-31T14:44:07.295Z,99414.67
2022-08-31T14:44:43.451Z,99415.14
2022-08-31T14:45:19.233Z,99410.83
2022-08-31T14:45:54.739Z,99413.85
2022-08-31T14:46:28.519Z,99409.15
2022-08-31T14:47:02.025Z,99413.23
2022-08-31T14:47:42.858Z,99412.11
2022-08-31T14:48:17.415Z,99408.20
2022-08-31T14:48:50.903Z,99413.77
2022-08-31T14:49:25.129Z,99411.61
2022-08-31T14:50:05.820Z,99410.96
2022-08-31T14:50:39.339Z,99415.20
2022-08-31T14:51:12.592Z,99416.10
2022-08-31T14:51:46.679Z,99413.36
2022-08-31T14:52:20.067Z,99413.21
2022-08-31T14:52:55.721Z,99413.58
2022-08-31T14:53:32.689Z,99415.60
2022-08-31T14:54:09.684Z,99416.66
2022-08-31T14:54:44.213Z,99415.37
2022-08-31T14:55:20.210Z,99419.94
2022-08-31T14:55:55.279Z,99417.69
2022-08-31T14:56:33.412Z,99416.39
2022-08-31T14:57:12.983Z,99417.45
2022-08-31T14:57:58.651Z,99411.20
2022-08-31T14:58:34.457Z,99414.38
2022-08-31T14:59:12.764Z,99417.86
2022-08-31T14:59:47.408Z,99417.52
2022-08-31T15:00:23.726Z,99414.77
2022-08-31T15:01:00.564Z,99413.73
2022-08-31T15:01:36.332Z,99413.67
2022-08-31T15:02:13.108Z,99415.79
2022-08-31T15:02:48.501Z,99415.84
2022-08-31T15:03:24.642Z,99415.95
2022-08-31T15:03:58.761Z,99415.30
2022-08-31T15:04:33.615Z,99414.86
2022-08-31T15:05:09.647Z,99418.36
2022-08-31T15:05:43.298Z,99414.55
2022-08-31T15:06:20.023Z,99413.41
2022-08-31T15:07:06.559Z,99414.88
2022-08-31T15:07:44.833Z,99420.77
2022-08-31T15:08:22.854Z,99417.95
2022-08-31T15:09:05.445Z,99417.67
2022-08-31T15:09:41.735Z,99416.14
2022-08-31T15:10:16.424Z,99415.52
2022-08-31T15:10:49.673Z,99415.73
2022-08-31T15:11:22.966Z,99414.67
2022-08-31T15:12:00.504Z,99415.52
2022-08-31T15:12:34.825Z,99415.96
2022-08-31T15:13:09.066Z,99415.57
2022-08-31T15:13:43.381Z,99415.15
2022-08-31T15:14:17.030Z,99416.45
2022-08-31T15:14:50.392Z,99412.27
2022-08-31T15:15:23.827Z,99412.02
2022-08-31T15:15:57.786Z,99413.70
2022-08-31T15:16:31.932Z,99414.09
2022-08-31T15:17:08.744Z,99416.68
2022-08-31T15:17:53.124Z,99415.44
2022-08-31T15:18:27.440Z,99411.95
2022-08-31T15:19:02.532Z,99415.36
2022-08-31T15:19:39.598Z,99416.09
2022-08-31T15:20:12.978Z,99413.17
2022-08-31T15:20:48.656Z,99410.01
2022-08-31T15:21:28.398Z,99407.45
2022-08-31T15:22:08.361Z,99413.84
2022-08-31T15:22:42.630Z,99416.27
2022-08-31T15:23:16.352Z,99413.58
2022-08-31T15:23:51.212Z,99409.89
2022-08-31T15:24:25.455Z,99410.27
2022-08-31T15:24:58.843Z,99408.71
2022-08-31T15:25:32.081Z,99405.57
2022-08-31T15:26:09.092Z,99405.23
2022-08-31T15:26:43.895Z,99406.92
2022-08-31T15:27:18.060Z,99410.34
2022-08-31T15:27:51.969Z,99405.56
2022-08-31T15:28:25.061Z,99405.65
2022-08-31T15:28:59.816Z,99409.55
2022-08-31T15:29:34.111Z,99412.80
2022-08-31T15:30:08.559Z,99408.95
2022-08-31T15:30:41.739Z,99409.09
2022-08-31T15:31:24.769Z,99411.86
2022-08-31T15:31:59.278Z,99409.66
2022-08-31T15:32:32.519Z,99411.70
2022-08-31T15:33:08.661Z,99411.52
2022-08-31T15:33:49.549Z,99415.05
2022-08-31T15:34:26.517Z,99413.48
2022-08-31T15:35:00.449Z,99414.98
2022-08-31T15:35:34.218Z,99415.05
2022-08-31T15:36:11.458Z,99415.30
2022-08-31T15:36:45.676Z,99412.96
2022-08-31T15:37:19.861Z,99412.36
2022-08-31T15:38:01.608Z,99410.87
2022-08-31T15:38:40.480Z,99410.42
2022-08-31T15:39:15.062Z,99410.90
2022-08-31T15:39:49.661Z,99412.89
2022-08-31T15:40:23.981Z,99406.59
2022-08-31T15:40:58.014Z,99408.79
2022-08-31T15:41:31.411Z,99407.05
2022-08-31T15:42:09.453Z,99410.02
2022-08-31T15:42:43.958Z,99408.58
2022-08-31T15:43:18.359Z,99410.73
2022-08-31T15:43:52.468Z,99405.91
2022-08-31T15:44:25.712Z,99408.13
2022-08-31T15:44:59.229Z,99406.95
2022-08-31T15:45:32.516Z,99409.88
2022-08-31T15:46:06.421Z,99412.44
2022-08-31T15:46:58.961Z,99405.33
2022-08-31T15:47:58.621Z,99407.90
2022-08-31T15:48:45.582Z,99407.12
2022-08-31T15:49:18.773Z,99409.56
2022-08-31T15:49:52.238Z,99406.87
2022-08-31T15:50:31.527Z,99405.90
2022-08-31T15:51:12.261Z,99402.96
2022-08-31T15:51:50.604Z,99405.11
2022-08-31T15:52:28.367Z,99406.43
2022-08-31T15:53:09.602Z,99406.57
2022-08-31T15:53:56.360Z,99404.27
2022-08-31T15:54:40.882Z,99403.16
2022-08-31T15:55:21.968Z,99404.23
2022-08-31T15:55:56.573Z,99403.77
2022-08-31T15:56:30.165Z,99403.50
2022-08-31T15:57:07.962Z,99399.19
2022-08-31T15:57:41.240Z,99403.10
2022-08-31T15:58:15.391Z,99400.38
2022-08-31T15:58:54.230Z,99399.52
2022-08-31T15:59:27.599Z,99401.65
2022-08-31T16:00:00.877Z,99401.21
2022-08-31T16:00:34.338Z,99400.64
2022-08-31T16:01:16.746Z,99403.09
2022-08-31T16:01:53.138Z,99401.05
2022-08-31T16:02:26.585Z,99401.83
2022-08-31T16:03:02.311Z,99402.08
2022-08-31T16:03:35.815Z,99407.51
2022-08-31T16:04:19.462Z,99398.88
2022-08-31T16:04:57.967Z,99399.23
2022-08-31T16:05:35.997Z,99401.39
2022-08-31T16:06:11.617Z,99396.94
2022-08-31T16:06:45.888Z,99398.74
2022-08-31T16:07:19.378Z,99397.77
2022-08-31T16:07:52.849Z,99398.04
2022-08-31T16:08:27.937Z,99398.45
2022-08-31T16:09:02.737Z,99397.27
2022-08-31T16:09:37.635Z,99400.98
2022-08-31T16:10:19.740Z,99402.51
2022-08-31T16:10:53.908Z,99402.21
2022-08-31T16:11:33.434Z,99400.23
2022-08-31T16:12:12.551Z,99402.46
2022-08-31T16:12:45.883Z,99401.99
2022-08-31T16:13:21.175Z,99404.58
2022-08-31T16:13:59.956Z,99403.72
2022-08-31T16:14:34.561Z,99408.51
2022-08-31T16:15:15.083Z,99406.11
2022-08-31T16:15:51.459Z,99405.79
2022-08-31T16:16:32.044Z,99408.64
2022-08-31T16:17:06.818Z,99407.97
2022-08-31T16:17:40.944Z,99407.36
2022-08-31T16:18:14.166Z,99407.73
2022-08-31T16:18:50.228Z,99406.98
2022-08-31T16:19:35.009Z,99405.36
2022-08-31T16:20:10.904Z,99404.67
2022-08-31T16:20:47.224Z,99403.99
2022-08-31T16:21:22.209Z,99403.73
2022-08-31T16:21:56.573Z,99402.73
2022-08-31T16:22:30.726Z,99402.36
2022-08-31T16:23:07.593Z,99401.14
2022-08-31T16:23:41.926Z,99401.66
2022-08-31T16:24:20.466Z,99399.17
2022-08-31T16:24:53.772Z,99397.50
2022-08-31T16:25:47.911Z,99399.92
2022-08-31T16:26:23.718Z,99395.58
2022-08-31T16:26:59.162Z,99394.45
2022-08-31T16:27:34.318Z,99395.94
2022-08-31T16:28:07.531Z,99395.70
2022-08-31T16:28:41.269Z,99393.57
2022-08-31T16:29:17.314Z,99391.91
2022-08-31T16:29:51.208Z,99396.51
2022-08-31T16:30:25.001Z,99390.38
2022-08-31T16:30:58.521Z,99393.77
2022-08-31T16:31:32.318Z,99394.55
2022-08-31T16:32:07.072Z,99394.34
2022-08-31T16:32:40.785Z,99396.45
2022-08-31T16:33:14.282Z,99395.88
2022-08-31T16:33:48.454Z,99396.49
2022-08-31T16:34:23.437Z,99398.30
2022-08-31T16:34:57.149Z,99398.92
2022-08-31T16:35:31.117Z,99398.31
2022-08-31T16:36:07.163Z,99399.52
2022-08-31T16:36:41.640Z,99399.29
2022-08-31T16:37:15.528Z,99397.61
2022-08-31T16:37:50.770Z,99398.23
2022-08-31T16:38:24.199Z,99400.56
2022-08-31T16:39:00.196Z,99398.15
2022-08-31T16:39:36.448Z,99399.36
2022-08-31T16:40:10.554Z,99397.27
2022-08-31T16:40:44.789Z,99400.73
2022-08-31T16:41:19.616Z,99397.30
2022-08-31T16:41:52.804Z,99396.88
2022-08-31T16:42:26.139Z,99395.16
2022-08-31T16:42:59.553Z,99395.09
2022-08-31T16:43:32.761Z,99398.91
2022-08-31T16:44:19.628Z,99397.45
2022-08-31T16:44:54.393Z,99398.96
2022-08-31T16:45:27.844Z,99399.55
2022-08-31T16:46:18.862Z,99400.74
2022-08-31T16:46:59.979Z,99397.17
2022-08-31T16:47:33.400Z,99398.70
2022-08-31T16:48:25.721Z,99400.92
2022-08-31T16:49:21.528Z,99400.33
2022-08-31T16:49:54.979Z,99401.72
2022-08-31T16:50:28.568Z,99405.47
2022-08-31T16:51:02.493Z,99405.55
2022-08-31T16:51:36.533Z,99405.19
2022-08-31T16:52:21.865Z,99402.95
2022-08-31T16:52:55.418Z,99407.65
2022-08-31T16:53:28.887Z,99403.86
2022-08-31T16:54:04.503Z,99407.37
2022-08-31T16:54:48.346Z,99409.29
2022-08-31T16:55:22.082Z,99407.14
2022-08-31T16:55:55.358Z,99408.09
2022-08-31T16:56:33.957Z,99405.73
2022-08-31T16:57:07.248Z,99407.86
2022-08-31T16:57:40.489Z,99409.42
2022-08-31T16:58:21.574Z,99408.13
2022-08-31T16:59:11.476Z,99406.82
2022-08-31T16:59:46.821Z,99411.05
2022-08-31T17:00:20.116Z,99409.46
2022-08-31T17:01:04.809Z,99411.69
2022-08-31T17:01:41.858Z,99407.09
2022-08-31T17:02:16.754Z,99408.73
2022-08-31T17:02:50.280Z,99409.56
2022-08-31T17:03:23.556Z,99409.29
2022-08-31T17:03:59.816Z,99407.70
2022-08-31T17:04:51.430Z,99411.63
2022-08-31T17:05:25.297Z,99411.89
2022-08-31T17:05:58.577Z,99410.60
2022-08-31T17:06:35.509Z,99414.43
2022-08-31T17:07:11.048Z,99414.59
2022-08-31T17:07:46.517Z,99417.11
2022-08-31T17:08:20.337Z,99418.79
2022-08-31T17:09:03.975Z,99417.45
2022-08-31T17:09:38.752Z,99422.96
2022-08-31T17:10:12.389Z,99418.33
2022-08-31T17:10:45.880Z,99416.14
2022-08-31T17:11:31.682Z,99417.52
2022-08-31T17:12:08.469Z,99418.63
2022-08-31T17:12:45.586Z,99416.44
2022-08-31T17:13:19.056Z,99418.28
2022-08-31T17:13:58.675Z,99416.77
2022-08-31T17:14:43.887Z,99419.20
2022-08-31T17:15:17.465Z,99422.10
2022-08-31T17:15:52.124Z,99425.15
2022-08-31T17:16:29.137Z,99423.15
2022-08-31T17:17:06.075Z,99421.85
2022-08-31T17:17:39.971Z,99423.10
2022-08-31T17:18:14.534Z,99421.70
2022-08-31T17:18:52.967Z,99425.42
2022-08-31T17:19:26.738Z,99423.96
2022-08-31T17:20:00.925Z,99424.79
2022-08-31T17:20:37.863Z,99426.85
2022-08-31T17:21:17.765Z,99429.48
2022-08-31T17:21:51.310Z,99431.17
2022-08-31T17:22:32.679Z,99430.17
2022-08-31T17:23:08.083Z,99429.12
2022-08-31T17:23:41.909Z,99430.75
2022-08-31T17:24:17.814Z,99430.66
2022-08-31T17:24:55.399Z,99429.70
2022-08-31T17:25:29.377Z,99429.34
2022-08-31T17:26:06.660Z,99431.92
2022-08-31T17:26:40.324Z,99430.04
2022-08-31T17:27:20.608Z,99431.98
2022-08-31T17:27:59.868Z,99430.85
2022-08-31T17:28:38.010Z,99430.42
2022-08-31T17:29:11.861Z,99429.15
2022-08-31T17:29:50.281Z,99428.96
2022-08-31T17:30:23.833Z,99427.11
2022-08-31T17:30:58.313Z,99429.35
2022-08-31T17:31:35.958Z,99429.48
2022-08-31T17:32:11.825Z,99425.31
2022-08-31T17:32:46.568Z,99426.88
2022-08-31T17:33:27.584Z,99428.35
2022-08-31T17:34:02.428Z,99429.76
2022-08-31T17:34:38.050Z,99429.59
2022-08-31T17:35:12.018Z,99434.23
2022-08-31T17:35:45.367Z,99437.27
2022-08-31T17:36:20.454Z,99436.50
2022-08-31T17:37:00.824Z,99437.13
2022-08-31T17:37:36.672Z,99438.70
2022-08-31T17:38:09.911Z,99443.63
2022-08-31T17:38:44.157Z,99440.56
2022-08-31T17:39:20.691Z,99446.53
2022-08-31T17:39:55.315Z,99446.82
2022-08-31T17:40:28.686Z,99445.56
2022-08-31T17:41:09.340Z,99447.20
2022-08-31T17:41:44.052Z,99448.30
2022-08-31T17:42:18.683Z,99447.09
2022-08-31T17:42:55.031Z,99452.91
2022-08-31T17:43:33.981Z,99452.17
2022-08-31T17:44:08.224Z,99449.66
2022-08-31T17:44:44.784Z,99448.60
2022-08-31T17:45:18.156Z,99450.95
2022-08-31T17:45:51.686Z,99454.38
2022-08-31T17:46:28.138Z,99453.48
2022-08-31T17:47:03.929Z,99452.38
2022-08-31T17:47:37.559Z,99454.64
2022-08-31T17:48:10.978Z,99451.52
2022-08-31T17:48:47.254Z,99452.65
2022-08-31T17:49:24.255Z,99453.30
2022-08-31T17:49:57.773Z,99457.23
2022-08-31T17:50:31.200Z,99456.11
2022-08-31T17:51:10.191Z,99456.72
2022-08-31T17:51:46.069Z,99454.97
2022-08-31T17:52:24.096Z,99456.81
2022-08-31T17:52:57.424Z,99456.70
2022-08-31T17:53:32.619Z,99455.44
2022-08-31T17:54:11.154Z,99456.59
2022-08-31T17:54:45.622Z,99455.95
2022-08-31T17:55:19.062Z,99454.77
2022-08-31T17:55:56.136Z,99457.52
2022-08-31T17:56:47.431Z,99455.42
2022-08-31T17:57:25.440Z,99455.73
2022-08-31T17:57:58.906Z,99455.29
2022-08-31T17:58:32.286Z,99454.39
2022-08-31T17:59:05.615Z,99456.02
2022-08-31T17:59:42.830Z,99455.77
2022-08-31T18:00:17.358Z,99454.55
2022-08-31T18:00:51.326Z,99458.45
2022-08-31T18:01:36.090Z,99456.66
2022-08-31T18:02:19.651Z,99457.77
2022-08-31T18:02:53.063Z,99460.05
2022-08-31T18:03:26.984Z,99457.58
2022-08-31T18:04:02.053Z,99460.55
2022-08-31T18:04:36.428Z,99459.85
2022-08-31T18:05:11.835Z,99463.73
2022-08-31T18:05:47.274Z,99462.36
2022-08-31T18:06:20.468Z,99462.69
2022-08-31T18:06:55.524Z,99462.94
2022-08-31T18:07:28.953Z,99463.71
2022-08-31T18:08:02.287Z,99465.67
2022-08-31T18:08:38.061Z,99465.72
2022-08-31T18:09:16.370Z,99464.45
2022-08-31T18:09:49.711Z,99465.69
2022-08-31T18:10:23.376Z,99463.84
2022-08-31T18:10:56.628Z,99467.27
2022-08-31T18:11:30.043Z,99463.98
2022-08-31T18:12:04.133Z,99466.30
2022-08-31T18:12:41.451Z,99465.94
2022-08-31T18:13:14.781Z,99468.75
2022-08-31T18:13:52.965Z,99468.33
2022-08-31T18:14:30.083Z,99470.23
2022-08-31T18:15:03.269Z,99468.66
2022-08-31T18:15:36.512Z,99475.20
2022-08-31T18:16:14.295Z,99475.03
2022-08-31T18:16:49.158Z,99474.78
2022-08-31T18:17:22.710Z,99476.13
2022-08-31T18:17:56.543Z,99473.40
2022-08-31T18:18:30.872Z,99478.36
2022-08-31T18:19:05.419Z,99475.75
2022-08-31T18:19:40.019Z,99475.05
2022-08-31T18:20:14.224Z,99473.02
2022-08-31T18:20:47.690Z,99477.20
2022-08-31T18:21:24.683Z,99474.83
2022-08-31T18:21:58.524Z,99475.81
2022-08-31T18:22:31.851Z,99474.52
2022-08-31T18:23:06.013Z,99471.11
2022-08-31T18:23:40.349Z,99470.76
2022-08-31T18:24:15.866Z,99476.64
2022-08-31T18:24:49.286Z,99475.29
2022-08-31T18:25:22.674Z,99473.83
2022-08-31T18:25:55.950Z,99473.86
2022-08-31T18:26:32.329Z,99471.46
2022-08-31T18:27:08.398Z,99475.59
2022-08-31T18:27:42.207Z,99475.79
2022-08-31T18:28:18.205Z,99476.45
2022-08-31T18:28:53.322Z,99479.19
2022-08-31T18:29:27.035Z,99471.88
2022-08-31T18:30:01.442Z,99474.13
2022-08-31T18:30:41.773Z,99479.43
2022-08-31T18:31:21.175Z,99476.13
2022-08-31T18:31:57.014Z,99477.11
2022-08-31T18:32:37.072Z,99476.71
2022-08-31T18:33:15.099Z,99476.52
2022-08-31T18:33:52.175Z,99474.71
2022-08-31T18:34:26.507Z,99476.27
2022-08-31T18:35:00.105Z,99473.77
2022-08-31T18:35:33.458Z,99475.70
2022-08-31T18:36:13.195Z,99476.45
2022-08-31T18:36:46.967Z,99478.25
2022-08-31T18:37:22.369Z,99477.34
2022-08-31T18:37:56.759Z,99476.85
2022-08-31T18:38:30.255Z,99475.95
2022-08-31T18:39:07.885Z,99474.48
2022-08-31T18:40:01.593Z,99476.97
2022-08-31T18:40:57.487Z,99476.34
2022-08-31T18:41:50.118Z,99474.04
2022-08-31T18:42:43.117Z,99475.70
2022-08-31T18:43:35.178Z,99473.11
2022-08-31T18:44:28.770Z,99477.60
2022-08-31T18:45:21.475Z,99481.45
2022-08-31T18:45:54.642Z,99482.22
2022-08-31T18:46:28.586Z,99482.58
2022-08-31T18:47:06.286Z,99479.12
2022-08-31T18:47:39.797Z,99479.20
2022-08-31T18:48:32.058Z,99480.95
2022-08-31T18:49:12.572Z,99481.73
2022-08-31T18:49:46.838Z,99481.45
2022-08-31T18:50:22.386Z,99481.21
2022-08-31T18:50:59.441Z,99481.02
2022-08-31T18:51:37.050Z,99478.11
2022-08-31T18:52:19.511Z,99481.08
2022-08-31T18:52:53.619Z,99482.89
2022-08-31T18:53:29.219Z,99479.95
2022-08-31T18:54:06.432Z,99482.01
2022-08-31T18:54:41.308Z,99479.98
2022-08-31T18:55:15.810Z,99478.85
2022-08-31T18:55:49.253Z,99482.58
2022-08-31T18:56:25.527Z,99479.96
2022-08-31T18:57:02.750Z,99479.35
2022-08-31T18:57:36.391Z,99481.52
2022-08-31T18:58:22.513Z,99479.67
2022-08-31T18:58:56.301Z,99476.85
2022-08-31T18:59:29.666Z,99478.20
2022-08-31T19:00:07.080Z,99478.33
2022-08-31T19:00:43.156Z,99477.55
2022-08-31T19:01:18.269Z,99477.73
2022-08-31T19:01:52.197Z,99478.21
2022-08-31T19:02:25.893Z,99476.63
2022-08-31T19:03:00.691Z,99475.23
2022-08-31T19:03:34.289Z,99475.48
2022-08-31T19:04:07.980Z,99477.95
2022-08-31T19:04:41.291Z,99477.95
2022-08-31T19:05:15.445Z,99476.37
2022-08-31T19:05:49.391Z,99474.81
2022-08-31T19:06:25.872Z,99473.92
2022-08-31T19:06:59.884Z,99472.41
2022-08-31T19:07:33.845Z,99472.01
2022-08-31T19:08:07.764Z,99472.27
2022-08-31T19:08:41.332Z,99473.16
2022-08-31T19:09:14.675Z,99474.09
2022-08-31T19:09:50.112Z,99473.44
2022-08-31T19:10:25.564Z,99472.86
2022-08-31T19:10:59.226Z,99473.75
2022-08-31T19:11:38.540Z,99471.35
2022-08-31T19:12:19.752Z,99472.79
2022-08-31T19:12:55.997Z,99475.35
2022-08-31T19:13:32.294Z,99476.87
2022-08-31T19:14:06.135Z,99472.91
2022-08-31T19:14:39.793Z,99472.50
2022-08-31T19:15:14.105Z,99471.59
2022-08-31T19:15:47.516Z,99473.88
2022-08-31T19:16:27.265Z,99474.70
2022-08-31T19:17:03.913Z,99473.23
2022-08-31T19:17:40.441Z,99475.68
2022-08-31T19:18:14.025Z,99477.84
2022-08-31T19:18:49.065Z,99472.13
2022-08-31T19:19:22.715Z,99474.49
2022-08-31T19:19:56.738Z,99474.94
2022-08-31T19:20:30.800Z,99473.23
2022-08-31T19:21:19.070Z,99474.29
2022-08-31T19:21:52.598Z,99472.41
2022-08-31T19:22:26.422Z,99473.92
2022-08-31T19:23:00.761Z,99474.38
2022-08-31T19:23:36.279Z,99472.05
2022-08-31T19:24:12.854Z,99472.95
2022-08-31T19:24:47.162Z,99468.88
2022-08-31T19:25:21.308Z,99471.18
2022-08-31T19:25:55.103Z,99471.17
2022-08-31T19:26:31.852Z,99469.34
2022-08-31T19:27:05.783Z,99466.48
2022-08-31T19:27:39.827Z,99469.48
2022-08-31T19:28:13.060Z,99468.85
2022-08-31T19:28:49.600Z,99466.65
2022-08-31T19:29:27.740Z,99464.92
2022-08-31T19:30:01.276Z,99464.14
2022-08-31T19:30:37.877Z,99464.64
2022-08-31T19:31:11.781Z,99463.30
2022-08-31T19:31:48.741Z,99465.29
2022-08-31T19:32:22.813Z,99463.70
2022-08-31T19:32:57.359Z,99465.09
2022-08-31T19:33:34.614Z,99463.78
2022-08-31T19:34:09.499Z,99461.92
2022-08-31T19:34:48.611Z,99461.36
2022-08-31T19:35:22.599Z,99462.98
2022-08-31T19:36:04.623Z,99465.81
2022-08-31T19:36:41.728Z,99461.84
2022-08-31T19:37:15.942Z,99462.42
2022-08-31T19:37:52.113Z,99461.44
2022-08-31T19:38:25.530Z,99463.52
2022-08-31T19:39:00.522Z,99461.08
2022-08-31T19:39:37.013Z,99460.40
2022-08-31T19:40:17.949Z,99463.73
2022-08-31T19:40:51.789Z,99464.09
2022-08-31T19:41:28.026Z,99464.09
2022-08-31T19:42:03.827Z,99465.73
2022-08-31T19:42:59.789Z,99464.90
2022-08-31T19:43:54.419Z,99464.57
2022-08-31T19:44:29.336Z,99464.39
2022-08-31T19:45:23.589Z,99459.45
2022-08-31T19:46:16.031Z,99462.71
2022-08-31T19:46:53.675Z,99467.48
2022-08-31T19:47:27.116Z,99467.24
2022-08-31T19:48:01.615Z,99465.96
2022-08-31T19:48:44.028Z,99464.46
2022-08-31T19:49:17.903Z,99461.52
2022-08-31T19:49:52.881Z,99464.95
2022-08-31T19:50:26.990Z,99466.23
2022-08-31T19:51:00.358Z,99463.67
2022-08-31T19:51:33.671Z,99463.23
2022-08-31T19:52:07.794Z,99465.31
2022-08-31T19:52:41.762Z,99463.86
2022-08-31T19:53:21.021Z,99462.23
2022-08-31T19:53:56.311Z,99462.52
2022-08-31T19:54:39.413Z,99460.04
2022-08-31T19:55:12.814Z,99458.08
2022-08-31T19:55:53.849Z,99460.77
2022-08-31T19:56:30.706Z,99459.42
2022-08-31T19:57:04.192Z,99456.46
2022-08-31T19:57:38.998Z,99459.31
2022-08-31T19:58:12.521Z,99455.90
2022-08-31T19:58:48.590Z,99454.77
2022-08-31T19:59:24.574Z,99456.07
2022-08-31T19:59:57.791Z,99454.64
2022-08-31T20:00:31.021Z,99453.91
2022-08-31T20:01:10.616Z,99454.55
2022-08-31T20:01:52.412Z,99454.47
2022-08-31T20:02:26.626Z,99455.77
2022-08-31T20:02:59.932Z,99455.00
2022-08-31T20:03:34.500Z,99458.41
2022-08-31T20:04:15.908Z,99454.16
2022-08-31T20:04:50.774Z,99456.41
2022-08-31T20:05:25.105Z,99455.27
2022-08-31T20:06:00.172Z,99456.16
2022-08-31T20:06:33.576Z,99454.23
2022-08-31T20:07:06.830Z,99454.11
2022-08-31T20:07:42.758Z,99455.63
2022-08-31T20:08:16.711Z,99455.73
2022-08-31T20:08:51.705Z,99458.34
2022-08-31T20:09:25.453Z,99458.42
2022-08-31T20:09:58.817Z,99458.94
2022-08-31T20:10:32.162Z,99458.42
2022-08-31T20:11:10.548Z,99458.09
2022-08-31T20:11:47.898Z,99458.00
2022-08-31T20:12:21.287Z,99460.66
2022-08-31T20:12:56.406Z,99458.06
2022-08-31T20:13:29.829Z,99457.70
2022-08-31T20:14:05.115Z,99457.37
2022-08-31T20:14:38.900Z,99458.20
2022-08-31T20:15:12.620Z,99455.75
2022-08-31T20:15:46.098Z,99457.39
2022-08-31T20:16:20.733Z,99459.89
2022-08-31T20:16:55.222Z,99457.57
2022-08-31T20:17:30.405Z,99456.05
2022-08-31T20:18:03.899Z,99456.91
2022-08-31T20:18:38.603Z,99457.65
2022-08-31T20:19:19.212Z,99457.23
2022-08-31T20:19:55.230Z,99455.39
2022-08-31T20:20:29.245Z,99455.10
2022-08-31T20:21:03.264Z,99454.62
2022-08-31T20:21:40.734Z,99455.81
2022-08-31T20:22:14.227Z,99452.84
2022-08-31T20:22:48.806Z,99452.57
2022-08-31T20:23:22.270Z,99452.19
2022-08-31T20:23:59.017Z,99452.85
2022-08-31T20:24:32.868Z,99447.64
2022-08-31T20:25:09.449Z,99448.88
2022-08-31T20:25:45.072Z,99448.80
2022-08-31T20:26:27.870Z,99450.19
2022-08-31T20:27:10.847Z,99450.52
2022-08-31T20:27:44.223Z,99450.69
2022-08-31T20:28:23.865Z,99451.98
2022-08-31T20:29:01.075Z,99450.86
2022-08-31T20:29:34.283Z,99455.33
2022-08-31T20:30:08.352Z,99454.30
2022-08-31T20:30:43.727Z,99448.92
2022-08-31T20:31:18.348Z,99456.36
2022-08-31T20:31:52.543Z,99454.34
2022-08-31T20:32:26.033Z,99453.41
2022-08-31T20:32:59.251Z,99455.40